Time;durP1;ratioP1;P1;durP2;ratioP2;P2;SDS_P1;SDS_P2;PMS_P1;PMS_P2;Temp;Humidity;BMP_temperature;BMP_pressure;BME280_temperature;BME280_humidity;BME280_pressure;Samples;Min_cycle;Max_cycle;Signal;HPM_P1;HPM_P2
2023/02/23 00:02:06;;;;;;;34.65;17.70;;;8.80;99.90;;;;;;5017740;28;20025;-75
2023/02/23 00:04:32;;;;;;;;;;;8.70;99.90;;;;;;5018924;28;20561;-76
2023/02/23 00:06:57;;;;;;;31.98;15.93;;;8.60;99.90;;;;;;5014817;28;20553;-74
2023/02/23 00:09:23;;;;;;;35.90;17.35;;;8.60;99.90;;;;;;5016925;28;20033;-74
2023/02/23 00:11:54;;;;;;;29.77;16.33;;;8.60;99.90;;;;;;5016610;28;20034;-76
2023/02/23 00:14:26;;;;;;;33.15;16.98;;;8.60;99.90;;;;;;5016311;28;20091;-77
2023/02/23 00:16:52;;;;;;;32.55;17.55;;;8.50;99.90;;;;;;5018273;28;20022;-74
2023/02/23 00:19:18;;;;;;;32.97;17.45;;;8.50;99.90;;;;;;4999299;28;20683;-77
2023/02/23 00:21:44;;;;;;;37.00;18.08;;;8.50;99.90;;;;;;5014232;28;20025;-77
2023/02/23 00:24:18;;;;;;;34.22;18.67;;;8.50;99.90;;;;;;5017665;28;20397;-77
2023/02/23 00:26:46;;;;;;;31.23;17.23;;;8.50;99.90;;;;;;5017063;28;20639;-77
2023/02/23 00:29:18;;;;;;;33.40;17.23;;;8.50;99.90;;;;;;5016446;28;20034;-75
2023/02/23 00:31:45;;;;;;;34.53;17.15;;;8.40;99.90;;;;;;5018068;28;20037;-77
2023/02/23 00:34:12;;;;;;;34.10;17.38;;;8.40;99.90;;;;;;5020461;28;20497;-75
2023/02/23 00:36:38;;;;;;;33.60;17.58;;;8.40;99.90;;;;;;5006895;28;20038;-77
2023/02/23 00:39:21;;;;;;;33.92;17.55;;;8.40;99.90;;;;;;5013724;28;20080;-74
2023/02/23 00:41:48;;;;;;;33.35;17.30;;;8.40;99.90;;;;;;5016045;28;20041;-77
2023/02/23 00:44:14;;;;;;;34.70;17.63;;;8.40;99.90;;;;;;5010878;28;20028;-77
2023/02/23 00:46:42;;;;;;;34.72;17.20;;;8.40;99.90;;;;;;5021745;28;20112;-77
2023/02/23 00:49:09;;;;;;;33.30;16.75;;;8.40;99.90;;;;;;5019883;28;20156;-74
2023/02/23 00:51:36;;;;;;;31.23;17.35;;;8.40;99.90;;;;;;5021137;28;20030;-76
2023/02/23 00:54:02;;;;;;;29.38;16.85;;;8.40;99.90;;;;;;5018852;28;20030;-73
2023/02/23 00:56:30;;;;;;;33.67;17.58;;;8.40;99.90;;;;;;5018544;28;20087;-74
2023/02/23 00:58:56;;;;;;;36.38;17.08;;;8.30;99.90;;;;;;5019600;28;20037;-77
2023/02/23 01:01:22;;;;;;;40.58;17.45;;;8.30;99.90;;;;;;5020338;28;20025;-76
2023/02/23 01:03:48;;;;;;;34.83;17.05;;;8.40;99.90;;;;;;5019405;28;20024;-74
2023/02/23 01:06:16;;;;;;;34.22;17.58;;;8.40;99.90;;;;;;5019216;28;20117;-75
2023/02/23 01:08:44;;;;;;;36.08;17.65;;;8.40;99.90;;;;;;5020681;28;20087;-73
2023/02/23 01:11:21;;;;;;;34.85;17.45;;;8.40;99.90;;;;;;5020127;28;20052;-74
2023/02/23 01:13:49;;;;;;;32.65;16.42;;;8.40;99.90;;;;;;5019096;28;20436;-76
2023/02/23 01:16:17;;;;;;;36.15;17.40;;;8.40;99.90;;;;;;5025877;28;20053;-74
2023/02/23 01:18:44;;;;;;;36.63;17.85;;;8.40;99.90;;;;;;5018513;28;20033;-74
2023/02/23 01:21:42;;;;;;;38.20;18.25;;;8.40;99.90;;;;;;5022146;28;20379;-76
2023/02/23 01:24:09;;;;;;;33.05;17.75;;;8.40;99.90;;;;;;4989528;28;20048;-74
2023/02/23 01:26:37;;;;;;;36.17;17.23;;;8.40;99.90;;;;;;5024911;28;20651;-75
2023/02/23 01:29:08;;;;;;;37.42;19.17;;;8.40;99.90;;;;;;5020492;28;20045;-76
2023/02/23 01:31:35;;;;;;;33.70;18.98;;;8.40;99.90;;;;;;5019289;28;20025;-75
2023/02/23 01:34:02;;;;;;;36.85;19.70;;;8.30;99.90;;;;;;5018136;28;20029;-77
2023/02/23 01:36:28;;;;;;;36.40;18.63;;;8.30;99.90;;;;;;5017677;28;20157;-76
2023/02/23 01:38:55;;;;;;;35.67;17.80;;;8.30;99.90;;;;;;5019149;28;20037;-75
2023/02/23 01:41:23;;;;;;;36.05;18.02;;;8.30;99.90;;;;;;5017069;28;20424;-76
2023/02/23 01:44:02;;;;;;;36.95;18.40;;;8.30;99.90;;;;;;5020809;28;20045;-74
2023/02/23 01:46:32;;;;;;;34.83;18.77;;;8.30;99.90;;;;;;5021378;28;20114;-76
2023/02/23 01:48:59;;;;;;;38.28;18.58;;;8.30;99.90;;;;;;5019263;28;20500;-76
2023/02/23 01:51:29;;;;;;;29.65;16.42;;;8.30;99.90;;;;;;5000741;28;20770;-75
2023/02/23 01:54:16;;;;;;;36.83;18.63;;;8.30;99.90;;;;;;5018004;28;20029;-74
2023/02/23 01:56:48;;;;;;;36.50;18.17;;;8.30;99.90;;;;;;5025511;28;20045;-74
2023/02/23 01:59:16;;;;;;;39.20;18.38;;;8.40;99.90;;;;;;5016615;28;20032;-76
2023/02/23 02:01:42;;;;;;;35.72;17.63;;;8.30;99.90;;;;;;5018104;28;20056;-76
2023/02/23 02:04:15;;;;;;;36.50;19.17;;;8.40;99.90;;;;;;5003758;28;20511;-74
2023/02/23 02:06:43;;;;;;;35.08;18.33;;;8.30;99.90;;;;;;5019470;28;20083;-76
2023/02/23 02:09:17;;;;;;;35.80;17.17;;;8.30;99.90;;;;;;5017261;28;20038;-76
2023/02/23 02:11:45;;;;;;;37.38;17.67;;;8.30;99.90;;;;;;5021311;28;20057;-76
2023/02/23 02:14:16;;;;;;;40.25;18.42;;;8.30;99.90;;;;;;5019141;28;20037;-76
2023/02/23 02:17:09;;;;;;;34.80;17.50;;;8.30;99.90;;;;;;5020108;28;20026;-74
2023/02/23 02:20:12;;;;;;;31.80;17.38;;;8.40;99.90;;;;;;5020144;28;20038;-77
2023/02/23 02:22:53;;;;;;;37.78;18.33;;;8.40;99.90;;;;;;4998340;28;20041;-76
2023/02/23 02:26:00;;;;;;;35.03;17.67;;;8.40;99.90;;;;;;4999521;28;20382;-73
2023/02/23 02:28:29;;;;;;;34.55;17.65;;;8.40;99.90;;;;;;4994683;28;20524;-77
2023/02/23 02:31:28;;;;;;;38.47;18.08;;;8.30;99.90;;;;;;5017870;28;20489;-74
2023/02/23 02:34:12;;;;;;;32.30;17.90;;;8.30;99.90;;;;;;5006379;28;20045;-77
2023/02/23 02:37:08;;;;;;;36.15;18.33;;;8.30;99.90;;;;;;5016842;28;20484;-75
2023/02/23 02:39:45;;;;;;;34.95;17.73;;;8.30;99.90;;;;;;5019977;28;20116;-74
2023/02/23 02:42:34;;;;;;;39.58;17.30;;;8.30;99.90;;;;;;5019501;28;20034;-77
2023/02/23 02:45:14;;;;;;;35.38;17.45;;;8.30;99.90;;;;;;5036938;28;20140;-74
2023/02/23 02:47:43;;;;;;;34.90;17.70;;;8.30;99.90;;;;;;5015379;28;20018;-77
2023/02/23 02:50:23;;;;;;;36.25;17.80;;;8.30;99.90;;;;;;5019404;28;20034;-75
2023/02/23 02:53:04;;;;;;;37.22;18.60;;;8.30;99.90;;;;;;5020816;28;20041;-75
2023/02/23 02:55:33;;;;;;;33.47;18.02;;;8.20;99.90;;;;;;5014100;28;20113;-74
2023/02/23 02:58:03;;;;;;;37.17;17.83;;;8.20;99.90;;;;;;5015013;28;20029;-74
2023/02/23 04:18:26;;;;;;;39.40;19.92;;;8.10;99.90;;;;;;5020018;28;20056;-74
2023/02/23 04:20:53;;;;;;;37.65;17.48;;;8.10;99.90;;;;;;5022006;28;20096;-73
2023/02/23 04:23:21;;;;;;;38.10;19.40;;;8.10;99.90;;;;;;5021141;28;20028;-75
2023/02/23 04:25:47;;;;;;;43.58;21.13;;;8.10;99.90;;;;;;5002878;28;20613;-76
2023/02/23 04:28:14;;;;;;;34.83;17.95;;;8.10;99.90;;;;;;5019595;28;20026;-76
2023/02/23 04:30:41;;;;;;;40.55;19.50;;;8.10;99.90;;;;;;5004366;28;20030;-76
2023/02/23 04:33:07;;;;;;;37.25;19.35;;;8.10;99.90;;;;;;5018647;28;20095;-77
2023/02/23 04:35:33;;;;;;;37.78;20.05;;;8.10;99.90;;;;;;5019123;28;20073;-73
2023/02/23 04:37:59;;;;;;;40.42;20.70;;;8.10;99.90;;;;;;5005292;28;20026;-77
2023/02/23 04:40:26;;;;;;;36.38;20.08;;;8.10;99.90;;;;;;5020975;28;20029;-75
2023/02/23 04:42:54;;;;;;;41.60;20.10;;;8.10;99.90;;;;;;5020496;28;20049;-76
2023/02/23 04:45:21;;;;;;;37.38;19.73;;;8.10;99.90;;;;;;5003139;28;20029;-76
2023/02/23 04:47:47;;;;;;;36.70;18.92;;;8.10;99.90;;;;;;5018735;28;20409;-76
2023/02/23 04:50:13;;;;;;;39.42;19.15;;;8.20;99.90;;;;;;5020155;28;20045;-75
2023/02/23 04:52:39;;;;;;;32.78;18.10;;;8.20;99.90;;;;;;5020646;28;20036;-76
2023/02/23 04:55:07;;;;;;;41.95;19.58;;;8.20;99.90;;;;;;5037114;28;20048;-76
2023/02/23 04:57:33;;;;;;;36.50;18.33;;;8.20;99.90;;;;;;5022229;28;20045;-73
2023/02/23 05:00:03;;;;;;;41.28;19.30;;;8.20;99.90;;;;;;5019644;28;20026;-73
2023/02/23 05:02:29;;;;;;;41.65;20.35;;;8.20;99.90;;;;;;5019800;28;20029;-73
2023/02/23 05:04:54;;;;;;;39.60;19.52;;;8.20;99.90;;;;;;5015245;28;20083;-73
2023/02/23 05:07:20;;;;;;;36.97;19.58;;;8.20;99.90;;;;;;5018043;28;20030;-73
2023/02/23 05:09:46;;;;;;;41.17;20.50;;;8.20;99.90;;;;;;5017982;28;20079;-73
2023/02/23 05:12:11;;;;;;;36.65;19.55;;;8.20;99.90;;;;;;5019044;28;20053;-76
2023/02/23 05:14:37;;;;;;;40.33;19.13;;;8.20;99.90;;;;;;5017840;28;20037;-76
2023/02/23 05:17:03;;;;;;;41.28;20.58;;;8.20;99.90;;;;;;5018762;28;20419;-75
2023/02/23 05:19:29;;;;;;;45.65;22.20;;;8.20;99.90;;;;;;5016692;28;20388;-76
2023/02/23 05:21:54;;;;;;;38.65;20.40;;;8.30;99.90;;;;;;5016824;28;20022;-76
2023/02/23 05:24:20;;;;;;;44.20;20.67;;;8.30;99.90;;;;;;5016129;28;20089;-77
2023/02/23 05:26:47;;;;;;;46.38;21.50;;;8.30;99.90;;;;;;5017765;28;20322;-76
2023/02/23 05:29:13;;;;;;;45.08;21.25;;;8.20;99.90;;;;;;5013441;28;20049;-73
2023/02/23 05:31:38;;;;;;;49.53;22.77;;;8.20;99.90;;;;;;5013828;28;20137;-73
2023/02/23 05:34:04;;;;;;;40.20;20.42;;;8.20;99.90;;;;;;5019390;28;20044;-76
2023/02/23 05:36:30;;;;;;;37.97;20.67;;;8.30;99.90;;;;;;5019354;28;20025;-76
2023/02/23 05:38:56;;;;;;;46.70;21.67;;;8.30;99.90;;;;;;5017419;28;20060;-74
2023/02/23 05:41:22;;;;;;;46.60;21.98;;;8.30;99.90;;;;;;5018312;28;20036;-74
2023/02/23 05:43:52;;;;;;;44.53;21.30;;;8.20;99.90;;;;;;5019108;28;20029;-77
2023/02/23 05:46:24;;;;;;;44.72;21.55;;;8.30;99.90;;;;;;4991557;28;20197;-76
2023/02/23 05:48:54;;;;;;;48.58;22.17;;;8.30;99.90;;;;;;5013239;28;20104;-74
2023/02/23 05:51:19;;;;;;;47.00;21.92;;;8.30;99.90;;;;;;5005304;28;20520;-78
2023/02/23 05:53:45;;;;;;;54.28;24.00;;;8.30;99.90;;;;;;4989115;28;20036;-78
2023/02/23 05:56:19;;;;;;;50.72;24.23;;;8.30;99.90;;;;;;5013529;28;20034;-73
2023/02/23 05:58:48;;;;;;;54.33;23.85;;;8.30;99.90;;;;;;5011444;28;20040;-77
2023/02/23 06:01:14;;;;;;;52.70;23.98;;;8.30;99.90;;;;;;5008775;28;20041;-75
2023/02/23 06:03:40;;;;;;;45.67;23.48;;;8.30;99.90;;;;;;5019694;28;20127;-76
2023/02/23 06:06:08;;;;;;;54.22;23.77;;;8.30;99.90;;;;;;5018074;28;20108;-76
2023/02/23 06:08:33;;;;;;;56.67;24.98;;;8.30;99.90;;;;;;5003715;28;20018;-75
2023/02/23 06:10:59;;;;;;;53.92;24.15;;;8.30;99.90;;;;;;5020272;28;20026;-77
2023/02/23 06:13:25;;;;;;;56.30;24.88;;;8.30;99.90;;;;;;5018145;28;20120;-73
2023/02/23 06:15:51;;;;;;;53.45;24.90;;;8.30;99.90;;;;;;4996578;28;20075;-74
2023/02/23 06:18:17;;;;;;;59.72;25.35;;;8.30;99.90;;;;;;5016097;28;20525;-77
2023/02/23 06:20:43;;;;;;;60.72;26.75;;;8.30;99.90;;;;;;5013674;28;20029;-76
2023/02/23 06:23:09;;;;;;;62.30;26.90;;;8.30;99.90;;;;;;5019064;28;20115;-74
2023/02/23 06:25:34;;;;;;;57.28;27.65;;;8.30;99.90;;;;;;5017360;28;20127;-74
2023/02/23 06:28:00;;;;;;;61.70;26.60;;;8.30;99.90;;;;;;5014210;28;20045;-78
2023/02/23 06:30:26;;;;;;;69.25;27.40;;;8.30;99.90;;;;;;5016701;28;20043;-73
2023/02/23 06:32:51;;;;;;;68.75;27.90;;;8.30;99.90;;;;;;5016959;28;20408;-77
2023/02/23 06:35:17;;;;;;;58.83;26.70;;;8.30;99.90;;;;;;4999834;28;20030;-73
2023/02/23 06:37:43;;;;;;;61.42;26.65;;;8.30;99.90;;;;;;5015826;28;20108;-75
2023/02/23 06:40:09;;;;;;;58.15;26.50;;;8.30;99.90;;;;;;5023318;28;20034;-75
2023/02/23 06:42:35;;;;;;;65.78;27.48;;;8.30;99.90;;;;;;5019213;28;20374;-74
2023/02/23 06:45:04;;;;;;;58.45;26.80;;;8.30;99.90;;;;;;5000440;28;20068;-73
2023/02/23 06:47:30;;;;;;;73.63;30.35;;;8.30;99.90;;;;;;5016544;28;20215;-73
2023/02/23 06:49:58;;;;;;;68.38;28.42;;;8.30;99.90;;;;;;5016766;28;20396;-77
2023/02/23 06:52:25;;;;;;;65.82;29.13;;;8.30;99.90;;;;;;5016994;28;20053;-76
2023/02/23 06:54:51;;;;;;;71.25;28.83;;;8.30;99.90;;;;;;4998255;28;20113;-73
2023/02/23 06:57:18;;;;;;;70.70;29.02;;;8.30;99.90;;;;;;5015419;28;20112;-73
2023/02/23 06:59:43;;;;;;;64.63;28.05;;;8.30;99.90;;;;;;5002329;28;20033;-73
2023/02/23 07:02:13;;;;;;;75.95;28.33;;;8.30;99.90;;;;;;5013969;28;20052;-73
2023/02/23 07:04:39;;;;;;;66.05;26.83;;;8.30;99.90;;;;;;5014390;28;20056;-73
2023/02/23 07:07:05;;;;;;;70.47;28.50;;;8.30;99.90;;;;;;5014040;28;20491;-72
2023/02/23 07:09:31;;;;;;;64.53;26.45;;;8.30;99.90;;;;;;5011347;28;20033;-74
2023/02/23 07:11:56;;;;;;;66.50;27.13;;;8.30;99.90;;;;;;5014922;28;20336;-74
2023/02/23 07:14:22;;;;;;;64.28;28.38;;;8.30;99.90;;;;;;5014319;28;20488;-74
2023/02/23 07:16:48;;;;;;;69.22;28.85;;;8.30;99.90;;;;;;5017129;28;20092;-74
2023/02/23 07:19:13;;;;;;;71.13;31.00;;;8.30;99.90;;;;;;5018129;28;20029;-74
2023/02/23 07:21:39;;;;;;;66.53;27.98;;;8.30;99.90;;;;;;4998128;28;20099;-74
2023/02/23 07:24:05;;;;;;;86.00;30.92;;;8.30;99.90;;;;;;5017472;28;20032;-74
2023/02/23 07:26:32;;;;;;;76.72;31.42;;;8.30;99.90;;;;;;5013555;28;20572;-73
2023/02/23 07:28:58;;;;;;;80.47;30.85;;;8.20;99.90;;;;;;5017420;28;20040;-74
2023/02/23 07:31:25;;;;;;;79.68;32.38;;;8.30;99.90;;;;;;5013712;28;20028;-73
2023/02/23 07:33:53;;;;;;;70.15;29.23;;;8.20;99.90;;;;;;4999574;28;20034;-76
2023/02/23 07:36:20;;;;;;;76.05;29.50;;;8.20;99.90;;;;;;5013426;28;20072;-73
2023/02/23 07:38:45;;;;;;;85.47;32.38;;;8.30;99.90;;;;;;5018703;28;20080;-77
2023/02/23 07:41:11;;;;;;;79.88;30.50;;;8.30;99.90;;;;;;5014364;28;20434;-73
2023/02/23 07:43:37;;;;;;;79.47;31.75;;;8.20;99.90;;;;;;5016089;28;20038;-73
2023/02/23 07:46:03;;;;;;;77.38;29.45;;;8.20;99.90;;;;;;5016293;28;20542;-73
2023/02/23 07:48:29;;;;;;;85.28;33.10;;;8.20;99.90;;;;;;5015109;28;20036;-75
2023/02/23 07:50:54;;;;;;;76.10;30.95;;;8.20;99.90;;;;;;5013128;28;20030;-76
2023/02/23 07:53:20;;;;;;;87.85;30.60;;;8.20;99.90;;;;;;5021678;28;20033;-75
2023/02/23 07:55:53;;;;;;;74.05;28.65;;;8.20;99.90;;;;;;5016965;28;20026;-78
2023/02/23 07:58:19;;;;;;;77.15;29.52;;;8.20;99.90;;;;;;5015001;28;20034;-75
2023/02/23 08:00:45;;;;;;;80.45;30.58;;;8.20;99.90;;;;;;5015855;28;20030;-74
2023/02/23 08:03:11;;;;;;;76.53;30.02;;;8.20;99.90;;;;;;5014177;28;20561;-75
2023/02/23 08:05:38;;;;;;;72.95;29.13;;;8.30;99.90;;;;;;5014809;28;20110;-78
2023/02/23 08:08:05;;;;;;;71.05;27.13;;;8.30;99.90;;;;;;5018392;28;20105;-79
2023/02/23 08:10:31;;;;;;;72.45;28.98;;;8.30;99.90;;;;;;5024595;28;20041;-74
2023/02/23 08:12:57;;;;;;;70.28;27.88;;;8.30;99.90;;;;;;5027989;28;20022;-79
2023/02/23 08:15:24;;;;;;;73.75;29.25;;;8.20;99.90;;;;;;5029405;28;20051;-75
2023/02/23 08:17:49;;;;;;;70.60;27.15;;;8.20;99.90;;;;;;5019314;28;20026;-78
2023/02/23 08:20:15;;;;;;;73.15;29.08;;;8.20;99.90;;;;;;4997052;28;20052;-74
2023/02/23 08:22:42;;;;;;;75.90;28.73;;;8.20;99.90;;;;;;5019146;28;20033;-78
2023/02/23 08:25:08;;;;;;;73.05;29.33;;;8.20;99.90;;;;;;5020433;28;20421;-80
2023/02/23 08:27:36;;;;;;;80.05;31.10;;;8.20;99.90;;;;;;5027562;28;20041;-79
2023/02/23 08:30:04;;;;;;;66.63;26.40;;;8.20;99.90;;;;;;5022335;28;20030;-78
2023/02/23 08:32:36;;;;;;;68.18;25.67;;;8.20;99.90;;;;;;5018804;28;20022;-74
2023/02/23 08:35:02;;;;;;;59.05;25.13;;;8.20;99.90;;;;;;5017533;28;20308;-78
2023/02/23 08:37:28;;;;;;;62.95;25.33;;;8.20;99.90;;;;;;5018530;28;20036;-80
2023/02/23 08:39:55;;;;;;;59.45;23.98;;;8.20;99.90;;;;;;5001709;28;20061;-74
2023/02/23 08:42:21;;;;;;;59.53;24.00;;;8.20;99.90;;;;;;5002339;28;20243;-76
2023/02/23 08:44:48;;;;;;;54.25;22.63;;;8.20;99.90;;;;;;5004235;28;20104;-77
2023/02/23 08:47:21;;;;;;;63.03;24.98;;;8.20;99.90;;;;;;5018518;28;20373;-77
2023/02/23 08:49:48;;;;;;;77.85;36.50;;;8.20;99.90;;;;;;5020721;28;20038;-75
2023/02/23 08:52:14;;;;;;;64.40;26.98;;;8.20;99.90;;;;;;5018097;28;20072;-76
2023/02/23 08:54:39;;;;;;;52.03;24.02;;;8.20;99.90;;;;;;4999991;28;20038;-77
2023/02/23 08:57:05;;;;;;;54.88;24.35;;;8.20;99.90;;;;;;4998168;28;20025;-79
2023/02/23 08:59:31;;;;;;;57.92;24.27;;;8.20;99.90;;;;;;5014530;28;20025;-75
2023/02/23 09:01:57;;;;;;;59.20;27.58;;;8.20;99.90;;;;;;5017364;28;20022;-79
2023/02/23 09:04:23;;;;;;;63.97;27.10;;;8.20;99.90;;;;;;5000188;28;20104;-78
2023/02/23 09:06:49;;;;;;;58.65;26.10;;;8.10;99.90;;;;;;5019210;28;20038;-74
2023/02/23 09:09:16;;;;;;;66.60;27.05;;;8.10;99.90;;;;;;5023430;28;20037;-74
2023/02/23 09:11:42;;;;;;;75.70;32.10;;;8.10;99.90;;;;;;5019144;28;20597;-79
2023/02/23 09:14:08;;;;;;;87.70;36.35;;;8.10;99.90;;;;;;5003837;28;20038;-74
2023/02/23 09:16:34;;;;;;;85.93;34.67;;;8.00;99.90;;;;;;5016721;28;20025;-74
2023/02/23 09:19:01;;;;;;;82.15;35.03;;;8.00;99.90;;;;;;5023130;28;20087;-78
2023/02/23 09:21:28;;;;;;;85.43;36.20;;;8.00;99.90;;;;;;5019708;28;20060;-74
2023/02/23 09:23:55;;;;;;;85.50;34.75;;;8.00;99.90;;;;;;5020040;28;20026;-74
2023/02/23 09:26:22;;;;;;;94.30;38.65;;;8.00;99.90;;;;;;5020334;28;20540;-78
2023/02/23 09:28:49;;;;;;;93.18;37.67;;;7.90;99.90;;;;;;5021818;28;20041;-77
2023/02/23 09:31:19;;;;;;;89.95;35.83;;;8.00;99.90;;;;;;5036661;28;20084;-74
2023/02/23 09:33:44;;;;;;;85.90;35.97;;;8.00;99.90;;;;;;5021034;28;20032;-77
2023/02/23 09:36:16;;;;;;;93.40;36.70;;;8.00;99.90;;;;;;5022206;28;20037;-75
2023/02/23 09:38:44;;;;;;;98.22;38.67;;;8.00;99.90;;;;;;5019112;28;20057;-75
2023/02/23 09:41:25;;;;;;;114.75;40.42;;;7.90;99.90;;;;;;5020121;28;20022;-78
2023/02/23 09:44:03;;;;;;;107.03;41.28;;;7.80;99.90;;;;;;5020427;28;20022;-74
2023/02/23 09:46:41;;;;;;;126.55;43.90;;;7.80;99.90;;;;;;5016769;28;20153;-77
2023/02/23 09:49:21;;;;;;;133.93;44.72;;;7.80;99.90;;;;;;5003203;28;20052;-78
2023/02/23 09:51:54;;;;;;;125.30;44.25;;;7.80;99.90;;;;;;5019039;28;20390;-74
2023/02/23 09:54:23;;;;;;;147.10;47.33;;;7.80;99.90;;;;;;5019679;28;20025;-78
2023/02/23 09:56:50;;;;;;;132.43;45.13;;;7.80;99.90;;;;;;5020591;28;20421;-77
2023/02/23 09:59:19;;;;;;;127.43;45.50;;;7.80;99.90;;;;;;5018998;28;20018;-74
2023/02/23 10:01:47;;;;;;;126.32;42.88;;;7.80;99.90;;;;;;5020841;28;20041;-78
2023/02/23 10:04:43;;;;;;;129.40;42.90;;;7.80;99.90;;;;;;5025927;28;20025;-75
2023/02/23 10:07:15;;;;;;;138.43;45.63;;;7.80;99.90;;;;;;5018418;28;20032;-74
2023/02/23 10:09:56;;;;;;;137.50;43.70;;;7.90;99.90;;;;;;5021233;28;20288;-75
2023/02/23 10:12:44;;;;;;;136.57;45.17;;;7.90;99.90;;;;;;5028573;28;20036;-77
2023/02/23 10:15:44;;;;;;;129.73;42.38;;;7.90;99.90;;;;;;5030088;28;20025;-78
2023/02/23 10:18:33;;;;;;;127.63;43.40;;;8.00;99.90;;;;;;5009436;28;20071;-78
2023/02/23 10:21:08;;;;;;;123.82;39.17;;;8.00;99.90;;;;;;5020770;28;20711;-73
2023/02/23 10:23:45;;;;;;;142.68;43.00;;;8.00;99.90;;;;;;5018055;28;20563;-79
2023/02/23 10:26:36;;;;;;;132.25;43.53;;;7.90;99.90;;;;;;5021600;28;20430;-74
2023/02/23 10:29:03;;;;;;;;;;;7.90;99.90;;;;;;5020038;28;20125;-75
2023/02/23 10:31:46;;;;;;;142.98;42.42;;;7.90;99.90;;;;;;5022044;28;19913;-77
2023/02/23 10:34:16;;;;;;;140.95;45.28;;;7.80;99.90;;;;;;5021394;28;20099;-73
2023/02/23 10:36:58;;;;;;;128.60;44.65;;;7.80;99.90;;;;;;5019964;28;20037;-74
2023/02/23 10:39:25;;;;;;;139.07;42.78;;;7.90;99.90;;;;;;5005498;28;20041;-74
2023/02/23 10:41:52;;;;;;;141.40;43.38;;;7.90;99.90;;;;;;5022709;28;20959;-79
2023/02/23 10:44:22;;;;;;;134.77;43.72;;;7.90;99.90;;;;;;5022272;28;20179;-79
2023/02/23 10:46:59;;;;;;;128.40;40.10;;;7.90;99.90;;;;;;5022055;28;20037;-75
2023/02/23 10:49:34;;;;;;;126.40;41.55;;;7.90;99.90;;;;;;5022448;28;20142;-79
2023/02/23 10:52:01;;;;;;;132.93;42.60;;;7.90;99.90;;;;;;5020885;28;20060;-75
2023/02/23 10:54:35;;;;;;;124.22;40.33;;;7.90;99.90;;;;;;5019440;28;20049;-78
2023/02/23 10:57:02;;;;;;;138.25;42.60;;;7.80;99.90;;;;;;5019694;28;20030;-77
2023/02/23 10:59:27;;;;;;;143.93;44.60;;;7.80;99.90;;;;;;5019451;28;20025;-75
2023/02/23 11:01:53;;;;;;;138.63;43.55;;;7.80;99.90;;;;;;5018535;28;20036;-77
2023/02/23 11:04:33;;;;;;;132.70;42.38;;;7.80;99.90;;;;;;5017102;28;20037;-75
2023/02/23 11:07:20;;;;;;;122.10;39.88;;;7.90;99.90;;;;;;5016888;28;20021;-79
2023/02/23 11:09:46;;;;;;;122.35;40.00;;;8.20;99.90;;;;;;5015990;28;20036;-78
2023/02/23 11:12:22;;;;;;;117.00;38.45;;;8.00;99.90;;;;;;5018357;28;20025;-78
2023/02/23 11:14:53;;;;;;;115.78;36.70;;;7.90;99.90;;;;;;5018316;28;20089;-78
2023/02/23 11:17:25;;;;;;;;;;;7.90;99.90;;;;;;5018361;28;20033;-74
2023/02/23 11:20:28;;;;;;;110.82;33.67;;;7.90;99.90;;;;;;5014772;28;19917;-78
2023/02/23 11:22:55;;;;;;;119.20;35.90;;;8.00;99.90;;;;;;5000535;28;20033;-76
2023/02/23 11:25:31;;;;;;;109.82;33.70;;;8.00;99.90;;;;;;5013326;28;20088;-78
2023/02/23 11:27:58;;;;;;;115.18;35.10;;;8.10;99.90;;;;;;5001070;28;20030;-78
2023/02/23 11:30:30;;;;;;;100.75;32.83;;;8.20;99.90;;;;;;5016041;28;20061;-78
2023/02/23 11:33:08;;;;;;;104.80;34.75;;;8.30;99.90;;;;;;5021045;28;20113;-78
2023/02/23 11:35:34;;;;;;;98.68;33.15;;;8.30;99.90;;;;;;5017523;28;20111;-79
2023/02/23 11:38:21;;;;;;;104.32;35.33;;;8.50;99.90;;;;;;5015500;28;20037;-75
2023/02/23 11:41:24;;;;;;;94.65;30.75;;;8.50;99.90;;;;;;5018336;28;20022;-78
2023/02/23 11:43:55;;;;;;;100.05;33.80;;;8.60;99.90;;;;;;5017844;28;20037;-78
2023/02/23 11:46:21;;;;;;;93.82;32.70;;;8.60;99.90;;;;;;5019199;28;20025;-79
2023/02/23 11:48:58;;;;;;;103.95;33.78;;;8.70;99.90;;;;;;5019064;28;20060;-75
2023/02/23 11:51:33;;;;;;;98.63;33.88;;;8.70;99.90;;;;;;5027949;28;20037;-79
2023/02/23 11:54:01;;;;;;;89.30;31.20;;;8.70;99.90;;;;;;5001988;28;20145;-78
2023/02/23 11:56:29;;;;;;;99.63;34.25;;;8.70;99.90;;;;;;5002002;28;20034;-74
2023/02/23 11:58:58;;;;;;;104.20;34.05;;;8.70;99.90;;;;;;5020616;28;20041;-75
2023/02/23 12:01:52;;;;;;;102.43;34.30;;;8.70;99.90;;;;;;5024993;28;20112;-74
2023/02/23 12:04:35;;;;;;;92.43;32.88;;;8.60;99.90;;;;;;5022644;28;20026;-74
2023/02/23 12:07:27;;;;;;;92.13;30.48;;;8.70;99.90;;;;;;5029446;28;20092;-78
2023/02/23 12:10:05;;;;;;;87.10;29.85;;;8.60;99.90;;;;;;5034493;28;20509;-75
2023/02/23 12:12:43;;;;;;;88.65;29.58;;;8.50;99.90;;;;;;5017897;28;20038;-74
2023/02/23 12:15:41;;;;;;;89.35;30.13;;;8.40;99.90;;;;;;5019035;28;20041;-78
2023/02/23 12:18:29;;;;;;;93.80;30.25;;;8.40;99.90;;;;;;4991129;28;20125;-79
2023/02/23 12:20:59;;;;;;;94.90;29.33;;;8.50;99.90;;;;;;5018336;28;20068;-74
2023/02/23 12:23:30;;;;;;;76.75;27.73;;;8.40;99.90;;;;;;5016044;28;20374;-74
2023/02/23 12:25:59;;;;;;;89.20;29.58;;;8.40;99.90;;;;;;5016095;28;20045;-74
2023/02/23 12:28:35;;;;;;;95.53;31.13;;;8.40;99.90;;;;;;5017546;28;20021;-78
2023/02/23 12:31:39;;;;;;;82.93;29.30;;;8.50;99.90;;;;;;4999066;28;20041;-74
2023/02/23 12:34:16;;;;;;;85.60;30.17;;;8.50;99.90;;;;;;5018033;28;20639;-74
2023/02/23 12:36:54;;;;;;;78.50;27.27;;;8.50;99.90;;;;;;5016408;28;20025;-77
2023/02/23 12:39:40;;;;;;;94.43;31.40;;;8.50;99.90;;;;;;5007601;28;20091;-78
2023/02/23 12:42:34;;;;;;;92.55;31.60;;;8.50;99.90;;;;;;5021491;28;20101;-74
2023/02/23 12:45:03;;;;;;;91.13;32.50;;;8.50;99.90;;;;;;5021956;28;20032;-74
2023/02/23 12:48:01;;;;;;;84.38;29.33;;;8.40;99.90;;;;;;5027620;28;20064;-74
2023/02/23 12:50:32;;;;;;;90.03;30.70;;;8.40;99.90;;;;;;5018241;28;20104;-74
2023/02/23 12:53:13;;;;;;;92.45;31.13;;;8.40;99.90;;;;;;5016539;28;20029;-73
2023/02/23 12:56:16;;;;;;;85.53;30.17;;;8.30;99.90;;;;;;5002094;28;20070;-73
2023/02/23 12:59:07;;;;;;;82.65;27.83;;;8.30;99.90;;;;;;5024134;28;20100;-73
2023/02/23 13:01:43;;;;;;;90.88;30.73;;;8.40;99.90;;;;;;5022226;28;20037;-74
2023/02/23 13:04:42;;;;;;;85.68;30.55;;;8.40;99.90;;;;;;5002723;28;20048;-74
2023/02/23 13:07:40;;;;;;;86.78;28.13;;;8.40;99.90;;;;;;5021270;28;20022;-78
2023/02/23 13:10:29;;;;;;;84.80;30.10;;;8.40;99.90;;;;;;5012300;28;20033;-75
2023/02/23 13:13:05;;;;;;;83.25;30.02;;;8.30;99.90;;;;;;5019906;28;20026;-75
2023/02/23 13:15:36;;;;;;;87.32;30.00;;;8.30;99.90;;;;;;5018662;28;20021;-77
2023/02/23 13:18:10;;;;;;;90.30;29.20;;;8.40;99.90;;;;;;5009672;28;20125;-77
2023/02/23 13:20:36;;;;;;;90.40;29.85;;;8.40;99.90;;;;;;5019740;28;20141;-73
2023/02/23 13:23:19;;;;;;;79.00;25.55;;;8.40;99.90;;;;;;5018531;28;20034;-77
2023/02/23 13:25:56;;;;;;;71.32;27.48;;;8.40;99.90;;;;;;5022983;28;20096;-78
2023/02/23 13:28:40;;;;;;;70.88;26.63;;;8.30;99.90;;;;;;5019230;28;20720;-76
2023/02/23 13:31:38;;;;;;;73.38;26.92;;;8.40;99.90;;;;;;5028257;28;20493;-78
2023/02/23 13:34:09;;;;;;;69.80;26.00;;;8.40;99.90;;;;;;5019996;28;20087;-78
2023/02/23 13:36:37;;;;;;;80.07;25.63;;;8.30;99.90;;;;;;5020372;28;20396;-74
2023/02/23 13:39:20;;;;;;;80.63;27.77;;;8.40;99.90;;;;;;5020227;28;20018;-75
2023/02/23 13:42:13;;;;;;;72.45;25.88;;;8.40;99.90;;;;;;5035990;28;20092;-78
2023/02/23 13:44:54;;;;;;;64.80;23.73;;;8.40;99.90;;;;;;5023716;28;20022;-75
2023/02/23 13:47:44;;;;;;;74.13;24.93;;;8.40;99.90;;;;;;5026820;28;20381;-78
2023/02/23 13:50:16;;;;;;;885.77;394.50;;;8.50;99.90;;;;;;5006189;28;20303;-78
2023/02/23 13:52:43;;;;;;;122.28;52.47;;;8.50;99.90;;;;;;5017358;28;20088;-74
2023/02/23 13:55:27;;;;;;;83.72;31.42;;;8.50;99.90;;;;;;5020129;28;20112;-78
2023/02/23 13:58:01;;;;;;;440.20;344.88;;;8.50;99.90;;;;;;5022194;28;20082;-78
2023/02/23 14:00:28;;;;;;;81.32;34.20;;;8.60;99.90;;;;;;5006698;28;20037;-78
2023/02/23 14:02:54;;;;;;;58.90;22.15;;;8.60;99.90;;;;;;5019593;28;20060;-78
2023/02/23 14:05:25;;;;;;;64.93;22.48;;;8.70;99.90;;;;;;5003273;28;20025;-79
2023/02/23 14:08:03;;;;;;;63.58;22.05;;;8.70;99.90;;;;;;5017817;28;20124;-79
2023/02/23 14:10:53;;;;;;;58.25;21.35;;;8.70;99.90;;;;;;5018480;28;20501;-80
2023/02/23 14:13:24;;;;;;;64.00;22.55;;;8.60;99.90;;;;;;5020816;28;20029;-78
2023/02/23 14:16:13;;;;;;;64.13;21.77;;;8.60;99.90;;;;;;5001356;28;20026;-78
2023/02/23 14:19:05;;;;;;;50.40;19.02;;;8.60;99.90;;;;;;5017691;28;20108;-74